createdAt,value
2018-01-12T00:00:46.040Z,34.03
2018-01-12T00:03:17.114Z,25.70
2018-01-12T00:05:47.703Z,34.17
2018-01-12T00:08:18.217Z,36.53
2018-01-12T00:10:49.270Z,37.90
2018-01-12T00:13:20.464Z,32.07
2018-01-12T00:15:52.173Z,30.43
2018-01-12T00:18:23.383Z,33.60
2018-01-12T00:20:53.718Z,35.63
2018-01-12T00:23:25.683Z,30.40
2018-01-12T00:25:55.945Z,29.33
2018-01-12T00:28:26.965Z,33.30
2018-01-12T00:30:57.239Z,31.67
2018-01-12T00:35:48.287Z,46.90
2018-01-12T00:38:18.680Z,32.37
2018-01-12T00:40:49.015Z,31.67
2018-01-12T00:43:19.376Z,37.70
2018-01-12T00:45:52.066Z,35.23
2018-01-12T00:48:22.336Z,33.80
2018-01-12T00:50:52.558Z,31.80
2018-01-12T00:53:22.876Z,32.47
2018-01-12T00:55:53.496Z,31.67
2018-01-12T00:58:23.890Z,33.87
2018-01-12T01:00:54.022Z,31.63
2018-01-12T01:03:24.321Z,31.83
2018-01-12T01:05:55.845Z,33.87
2018-01-12T01:08:26.546Z,31.47
2018-01-12T01:10:56.927Z,31.70
2018-01-12T01:13:27.020Z,37.33
2018-01-12T01:15:57.531Z,29.70
2018-01-12T01:18:27.718Z,33.37
2018-01-12T01:20:58.028Z,36.37
2018-01-12T01:23:28.765Z,38.10
2018-01-12T01:26:00.117Z,29.43
2018-01-12T01:28:30.384Z,43.67
2018-01-12T01:31:00.493Z,32.97
2018-01-12T01:33:30.812Z,31.93
2018-01-12T01:36:01.159Z,36.83
2018-01-12T01:38:31.734Z,37.43
2018-01-12T01:41:01.851Z,40.70
2018-01-12T01:43:32.333Z,36.03
2018-01-12T01:46:02.676Z,35.47
2018-01-12T01:48:41.567Z,37.40
2018-01-12T01:51:17.647Z,40.23
2018-01-12T01:53:49.459Z,41.60
2018-01-12T01:56:19.728Z,37.77
2018-01-12T01:58:51.666Z,48.07
2018-01-12T02:01:23.448Z,36.60
2018-01-12T02:03:55.591Z,40.00
2018-01-12T02:06:25.760Z,35.73
2018-01-12T02:08:55.864Z,38.97
2018-01-12T02:11:26.168Z,48.93
2018-01-12T02:13:56.520Z,40.17
2018-01-12T02:16:26.828Z,36.77
2018-01-12T02:18:57.593Z,34.77
2018-01-12T02:21:27.808Z,40.37
2018-01-12T02:23:58.952Z,33.47
2018-01-12T02:26:29.929Z,37.67
2018-01-12T02:29:00.116Z,41.23
2018-01-12T02:31:30.323Z,37.80
2018-01-12T02:34:01.596Z,37.20
2018-01-12T02:36:32.432Z,32.10
2018-01-12T02:39:03.633Z,35.50
2018-01-12T02:41:34.396Z,43.73
2018-01-12T02:44:04.504Z,36.83
2018-01-12T02:46:35.008Z,43.93
2018-01-12T02:49:05.368Z,34.97
2018-01-12T02:51:36.063Z,35.37
2018-01-12T02:54:06.216Z,49.60
2018-01-12T02:56:36.480Z,45.53
2018-01-12T02:59:06.661Z,41.90
2018-01-12T03:01:37.404Z,42.33
2018-01-12T03:04:07.917Z,39.93
2018-01-12T03:06:38.045Z,38.13
2018-01-12T03:09:08.913Z,45.73
2018-01-12T03:11:39.434Z,38.67
2018-01-12T03:14:09.624Z,36.47
2018-01-12T03:16:39.885Z,34.77
2018-01-12T03:19:10.172Z,38.57
2018-01-12T03:21:41.129Z,40.43
2018-01-12T03:24:11.381Z,44.57
2018-01-12T03:26:41.848Z,46.17
2018-01-12T03:29:13.085Z,36.77
2018-01-12T03:31:43.863Z,42.40
2018-01-12T03:34:14.038Z,36.93
2018-01-12T03:36:45.800Z,38.90
2018-01-12T03:39:16.542Z,42.53
2018-01-12T03:41:46.683Z,40.83
2018-01-12T03:44:16.829Z,41.60
2018-01-12T03:46:47.397Z,34.20
2018-01-12T03:49:17.924Z,39.83
2018-01-12T03:51:48.557Z,44.60
2018-01-12T03:54:18.903Z,32.23
2018-01-12T03:56:50.121Z,27.90
2018-01-12T03:59:21.140Z,35.40
2018-01-12T04:01:52.060Z,35.97
2018-01-12T04:04:23.228Z,32.17
2018-01-12T04:06:55.121Z,35.83
2018-01-12T04:09:27.029Z,37.67
2018-01-12T04:11:58.212Z,26.97
2018-01-12T04:14:28.451Z,32.47
2018-01-12T04:16:58.752Z,34.10
2018-01-12T04:19:30.089Z,32.43
2018-01-12T04:22:00.413Z,32.27
2018-01-12T04:24:31.123Z,38.53
2018-01-12T04:27:01.483Z,39.80
2018-01-12T04:29:31.842Z,30.67
2018-01-12T04:32:02.109Z,41.07
2018-01-12T04:34:32.486Z,27.07
2018-01-12T04:37:03.007Z,33.03
2018-01-12T04:39:33.896Z,31.57
2018-01-12T04:42:04.260Z,31.60
2018-01-12T04:44:34.517Z,35.30
2018-01-12T04:47:05.425Z,27.77
2018-01-12T04:49:35.601Z,32.53
2018-01-12T04:52:05.872Z,28.93
2018-01-12T04:54:35.872Z,27.57
2018-01-12T04:57:07.732Z,27.73
2018-01-12T04:59:38.721Z,30.10
2018-01-12T05:02:08.904Z,30.10
2018-01-12T05:04:39.246Z,29.30
2018-01-12T05:07:09.912Z,31.10
2018-01-12T05:09:40.275Z,29.83
2018-01-12T05:12:10.696Z,27.30
2018-01-12T05:14:42.750Z,29.67
2018-01-12T05:17:13.335Z,35.03
2018-01-12T05:19:44.244Z,31.97
2018-01-12T05:22:14.723Z,33.10
2018-01-12T05:24:45.230Z,34.60
2018-01-12T05:27:15.315Z,37.83
2018-01-12T05:29:45.308Z,33.47
2018-01-12T05:32:15.394Z,28.70
2018-01-12T05:34:46.286Z,29.73
2018-01-12T05:37:23.184Z,33.57
2018-01-12T05:39:57.329Z,32.70
2018-01-12T05:42:32.834Z,33.47
2018-01-12T05:45:07.065Z,27.00
2018-01-12T05:47:39.553Z,29.50
2018-01-12T05:50:12.304Z,33.60
2018-01-12T05:52:42.956Z,27.83
2018-01-12T05:55:12.976Z,38.33
2018-01-12T05:57:45.538Z,31.00
2018-01-12T06:00:16.165Z,26.67
2018-01-12T06:04:58.978Z,29.17
2018-01-12T06:07:29.137Z,31.20
2018-01-12T06:09:59.106Z,28.10
2018-01-12T06:12:29.362Z,29.03
2018-01-12T06:14:59.814Z,27.30
2018-01-12T06:17:30.309Z,27.57
2018-01-12T06:20:01.167Z,24.70
2018-01-12T06:22:31.574Z,26.63
2018-01-12T06:25:01.925Z,28.50
2018-01-12T06:27:32.075Z,29.60
2018-01-12T06:30:04.628Z,37.90
2018-01-12T06:32:37.013Z,34.17
2018-01-12T06:35:09.315Z,28.50
2018-01-12T06:37:39.834Z,32.57
2018-01-12T06:40:10.789Z,29.10
2018-01-12T06:42:40.884Z,27.33
2018-01-12T06:45:12.168Z,28.70
2018-01-12T06:47:42.260Z,24.27
2018-01-12T06:50:19.134Z,25.73
2018-01-12T06:52:52.270Z,22.30
2018-01-12T06:55:28.089Z,24.53
2018-01-12T06:58:03.103Z,23.13
2018-01-12T07:00:33.899Z,22.57
2018-01-12T07:03:04.078Z,30.13
2018-01-12T07:05:37.421Z,29.63
2018-01-12T07:08:07.873Z,25.73
2018-01-12T07:10:39.033Z,29.10
2018-01-12T07:13:09.912Z,34.20
2018-01-12T07:15:40.378Z,29.53
2018-01-12T07:18:10.932Z,23.87
2018-01-12T07:22:52.088Z,28.50
2018-01-12T07:25:22.896Z,29.50
2018-01-12T07:27:53.250Z,23.63
2018-01-12T07:30:23.452Z,26.97
2018-01-12T07:32:53.569Z,26.60
2018-01-12T07:35:24.008Z,24.37
2018-01-12T07:37:54.196Z,27.60
2018-01-12T07:40:25.043Z,24.27
2018-01-12T07:42:55.149Z,30.40
2018-01-12T07:45:25.620Z,21.70
2018-01-12T07:47:56.037Z,29.80
2018-01-12T07:50:26.186Z,24.03
2018-01-12T07:53:01.248Z,25.90
2018-01-12T07:55:31.341Z,21.80
2018-01-12T07:58:03.085Z,26.37
2018-01-12T08:00:38.537Z,26.87
2018-01-12T08:03:09.061Z,30.60
2018-01-12T08:05:39.889Z,28.07
2018-01-12T08:08:11.306Z,24.77
2018-01-12T08:10:41.818Z,22.53
2018-01-12T08:13:13.010Z,26.30
2018-01-12T08:15:44.116Z,25.83
2018-01-12T08:18:15.038Z,23.30
2018-01-12T08:20:45.620Z,29.73
2018-01-12T08:23:17.010Z,28.00
2018-01-12T08:25:47.991Z,22.90
2018-01-12T08:28:18.398Z,27.43
2018-01-12T08:30:48.701Z,28.43
2018-01-12T08:33:18.960Z,26.07
2018-01-12T08:35:49.133Z,30.13
2018-01-12T08:38:19.451Z,23.03
2018-01-12T08:40:50.264Z,23.40
2018-01-12T08:43:20.529Z,24.60
2018-01-12T08:45:50.790Z,26.57
2018-01-12T08:48:21.294Z,20.30
2018-01-12T08:50:52.523Z,21.23
2018-01-12T08:53:22.757Z,26.73
2018-01-12T08:57:22.355Z,23.97
2018-01-12T08:59:52.481Z,21.47
2018-01-12T09:02:22.948Z,21.27
2018-01-12T09:04:54.263Z,27.77
2018-01-12T09:07:24.812Z,24.10
2018-01-12T09:09:55.253Z,21.27
2018-01-12T09:12:25.512Z,20.60
2018-01-12T09:14:56.337Z,23.80
2018-01-12T09:17:33.628Z,23.70
2018-01-12T09:20:13.096Z,25.87
2018-01-12T09:22:47.536Z,27.23
2018-01-12T09:25:25.893Z,27.10
2018-01-12T09:27:57.835Z,31.67
2018-01-12T09:30:28.005Z,26.60
2018-01-12T09:32:59.205Z,36.43
2018-01-12T09:35:35.834Z,36.80
2018-01-12T09:38:22.994Z,22.37
2018-01-12T09:40:53.278Z,30.27
2018-01-12T09:43:24.343Z,28.10
2018-01-12T09:45:55.608Z,38.60
2018-01-12T09:48:31.997Z,31.73
2018-01-12T09:51:02.501Z,28.03
2018-01-12T09:53:33.628Z,24.17
2018-01-12T09:56:03.837Z,29.23
2018-01-12T09:58:35.259Z,16.67
2018-01-12T10:01:06.890Z,20.97
2018-01-12T10:03:37.836Z,23.97
2018-01-12T10:06:08.467Z,17.97
2018-01-12T10:08:42.779Z,20.40
2018-01-12T10:11:13.775Z,21.17
2018-01-12T10:13:47.372Z,21.60
2018-01-12T10:16:18.382Z,23.53
2018-01-12T10:18:53.881Z,21.37
2018-01-12T10:21:33.296Z,19.97
2018-01-12T10:24:03.697Z,22.37
2018-01-12T10:26:34.508Z,17.30
2018-01-12T10:29:08.452Z,21.37
2018-01-12T10:31:48.312Z,19.30
2018-01-12T10:34:26.155Z,30.00
2018-01-12T10:36:56.688Z,20.20
2018-01-12T10:39:27.053Z,18.83
2018-01-12T10:42:04.466Z,21.60
2018-01-12T10:44:34.859Z,21.37
2018-01-12T10:47:14.767Z,24.97
2018-01-12T10:49:54.574Z,21.77
2018-01-12T10:52:30.905Z,23.87
2018-01-12T10:55:02.214Z,27.53
2018-01-12T10:57:32.600Z,25.30
2018-01-12T11:00:03.351Z,22.83
2018-01-12T11:02:33.885Z,27.50
2018-01-12T11:05:05.119Z,24.47
2018-01-12T11:07:36.610Z,22.07
2018-01-12T11:10:06.988Z,25.63
2018-01-12T11:12:37.303Z,25.47
2018-01-12T11:15:08.898Z,23.90
2018-01-12T11:17:39.495Z,31.30
2018-01-12T11:20:09.763Z,27.37
2018-01-12T11:22:40.795Z,23.23
2018-01-12T11:25:11.228Z,27.77
2018-01-12T11:27:41.494Z,26.40
2018-01-12T11:30:12.228Z,31.67
2018-01-12T11:32:42.515Z,34.10
2018-01-12T11:35:12.852Z,24.70
2018-01-12T11:37:43.620Z,28.60
2018-01-12T11:40:14.332Z,31.43
2018-01-12T11:42:44.624Z,28.53
2018-01-12T11:45:15.458Z,23.97
2018-01-12T11:47:46.602Z,31.73
2018-01-12T11:50:19.477Z,27.43
2018-01-12T11:52:50.759Z,29.30
2018-01-12T11:55:21.461Z,29.93
2018-01-12T11:57:52.222Z,28.30
2018-01-12T12:00:22.552Z,27.63
2018-01-12T12:02:53.151Z,25.90
2018-01-12T12:05:23.691Z,26.80
2018-01-12T12:07:53.978Z,26.70
2018-01-12T12:10:25.019Z,26.33
2018-01-12T12:12:56.263Z,20.50
2018-01-12T12:15:28.621Z,31.80
2018-01-12T12:17:59.810Z,22.93
2018-01-12T12:20:31.546Z,26.03
2018-01-12T12:23:03.801Z,22.97
2018-01-12T12:25:34.914Z,25.60
2018-01-12T12:28:05.593Z,29.73
2018-01-12T12:30:36.216Z,20.60
2018-01-12T12:33:07.623Z,26.40
2018-01-12T12:35:39.523Z,24.30
2018-01-12T12:38:11.230Z,21.60
2018-01-12T12:40:42.290Z,19.63
2018-01-12T12:43:12.749Z,18.47
2018-01-12T12:45:43.777Z,23.37
2018-01-12T12:48:15.329Z,22.97
2018-01-12T12:50:45.606Z,30.57
2018-01-12T12:53:16.636Z,24.07
2018-01-12T12:55:47.022Z,30.13
2018-01-12T12:58:17.541Z,25.27
2018-01-12T13:00:49.097Z,26.00
2018-01-12T13:03:19.519Z,21.60
2018-01-12T13:05:49.898Z,29.50
2018-01-12T13:08:21.587Z,35.77
2018-01-12T13:10:52.823Z,30.13
2018-01-12T13:13:23.965Z,29.17
2018-01-12T13:15:54.163Z,31.07
2018-01-12T13:18:24.464Z,32.07
2018-01-12T13:20:56.314Z,27.70
2018-01-12T13:23:28.148Z,34.00
2018-01-12T13:26:02.664Z,34.23
2018-01-12T13:28:34.335Z,32.87
2018-01-12T13:31:05.028Z,27.37
2018-01-12T13:33:35.246Z,33.13
2018-01-12T13:36:06.518Z,29.70
2018-01-12T13:38:37.660Z,28.80
2018-01-12T13:41:09.612Z,32.83
2018-01-12T13:43:40.895Z,25.43
2018-01-12T13:46:11.324Z,22.00
2018-01-12T13:48:42.413Z,27.13
2018-01-12T13:51:14.855Z,28.03
2018-01-12T13:53:45.268Z,29.67
2018-01-12T13:56:16.530Z,29.10
2018-01-12T13:58:47.158Z,28.10
2018-01-12T14:01:17.361Z,32.60
2018-01-12T14:03:50.818Z,34.93
2018-01-12T14:06:21.584Z,28.67
2018-01-12T14:08:51.847Z,26.20
2018-01-12T14:11:22.698Z,29.77
2018-01-12T14:13:53.145Z,28.97
2018-01-12T14:16:23.541Z,31.83
2018-01-12T14:18:53.748Z,29.70
2018-01-12T14:21:24.106Z,30.57
2018-01-12T14:23:54.406Z,30.30
2018-01-12T14:26:24.762Z,28.60
2018-01-12T14:28:55.265Z,31.73
2018-01-12T14:31:25.820Z,32.03
2018-01-12T14:33:56.243Z,41.73
2018-01-12T14:36:28.606Z,34.73
2018-01-12T14:39:00.117Z,37.30
2018-01-12T14:41:30.530Z,32.40
2018-01-12T14:44:02.014Z,30.00
2018-01-12T14:46:33.720Z,30.33
2018-01-12T14:49:06.207Z,32.50
2018-01-12T14:51:38.762Z,32.13
2018-01-12T14:54:10.630Z,43.90
2018-01-12T14:56:41.042Z,39.10
2018-01-12T14:59:13.657Z,43.60
2018-01-12T15:01:46.066Z,41.90
2018-01-12T15:04:16.431Z,41.40
2018-01-12T15:06:47.701Z,33.20
2018-01-12T15:09:18.027Z,34.93
2018-01-12T15:11:48.807Z,35.43
2018-01-12T15:14:19.635Z,41.17
2018-01-12T15:16:51.263Z,35.57
2018-01-12T15:19:21.785Z,40.63
2018-01-12T15:21:52.105Z,40.70
2018-01-12T15:24:22.652Z,37.10
2018-01-12T15:26:53.390Z,45.40
2018-01-12T15:29:23.600Z,39.17
2018-01-12T15:31:54.173Z,40.37
2018-01-12T15:34:25.370Z,41.13
2018-01-12T15:36:55.749Z,39.83
2018-01-12T15:39:26.100Z,36.83
2018-01-12T15:41:56.965Z,38.87
2018-01-12T15:44:27.349Z,33.73
2018-01-12T15:46:58.501Z,40.23
2018-01-12T15:49:30.064Z,39.63
2018-01-12T15:52:00.380Z,46.67
2018-01-12T15:54:30.805Z,47.10
2018-01-12T15:57:01.808Z,43.47
2018-01-12T15:59:32.399Z,42.87
2018-01-12T16:02:02.943Z,37.90
2018-01-12T16:04:33.338Z,41.10
2018-01-12T16:07:03.908Z,44.77
2018-01-12T16:09:34.623Z,43.20
2018-01-12T16:12:05.472Z,37.73
2018-01-12T16:14:35.852Z,42.70
2018-01-12T16:17:07.513Z,37.43
2018-01-12T16:19:38.254Z,43.60
2018-01-12T16:22:09.487Z,35.33
2018-01-12T16:24:39.937Z,42.20
2018-01-12T16:27:10.704Z,43.63
2018-01-12T16:29:41.889Z,40.10
2018-01-12T16:32:13.261Z,36.00
2018-01-12T16:34:44.743Z,43.10
2018-01-12T16:37:15.686Z,38.60
2018-01-12T16:39:46.120Z,49.23
2018-01-12T16:42:16.529Z,49.37
2018-01-12T16:44:47.537Z,40.83
2018-01-12T16:47:18.200Z,44.00
2018-01-12T16:49:48.769Z,42.40
2018-01-12T16:52:20.216Z,43.70
2018-01-12T16:54:51.251Z,40.13
2018-01-12T16:57:21.820Z,46.37
2018-01-12T16:59:52.502Z,42.73
2018-01-12T17:02:23.699Z,47.90
2018-01-12T17:04:54.020Z,57.23
2018-01-12T17:07:24.670Z,47.13
2018-01-12T17:09:55.796Z,61.20
2018-01-12T17:12:26.057Z,44.13
2018-01-12T17:14:56.207Z,47.97
2018-01-12T17:17:27.540Z,42.00
2018-01-12T17:19:58.148Z,42.07
2018-01-12T17:22:28.558Z,50.30
2018-01-12T17:24:58.866Z,50.37
2018-01-12T17:27:29.378Z,41.30
2018-01-12T17:29:59.715Z,49.30
2018-01-12T17:32:30.098Z,38.57
2018-01-12T17:35:01.407Z,39.23
2018-01-12T17:37:32.021Z,43.27
2018-01-12T17:40:02.126Z,51.73
2018-01-12T17:42:32.624Z,51.50
2018-01-12T17:45:03.930Z,62.50
2018-01-12T17:47:34.204Z,48.20
2018-01-12T17:50:05.552Z,57.60
2018-01-12T17:52:36.659Z,53.17
2018-01-12T17:55:06.951Z,62.50
2018-01-12T17:57:37.501Z,55.73
2018-01-12T18:00:07.646Z,59.33
2018-01-12T18:02:38.700Z,46.40
2018-01-12T18:05:10.145Z,49.03
2018-01-12T18:07:42.040Z,64.70
2018-01-12T18:10:12.262Z,52.80
2018-01-12T18:12:42.645Z,61.43
2018-01-12T18:15:13.495Z,55.50
2018-01-12T18:17:43.689Z,45.23
2018-01-12T18:20:13.862Z,49.40
2018-01-12T18:22:44.037Z,50.43
2018-01-12T18:25:15.011Z,60.33
2018-01-12T18:27:45.362Z,57.50
2018-01-12T18:30:16.290Z,53.47
2018-01-12T18:32:47.110Z,60.97
2018-01-12T18:35:17.580Z,42.03
2018-01-12T18:37:47.829Z,46.60
2018-01-12T18:40:18.073Z,52.67
2018-01-12T18:42:49.109Z,52.60
2018-01-12T18:45:19.928Z,50.50
2018-01-12T18:47:50.288Z,45.83
2018-01-12T18:50:20.728Z,48.43
2018-01-12T18:52:51.100Z,53.30
2018-01-12T18:55:21.410Z,55.13
2018-01-12T18:57:51.672Z,50.63
2018-01-12T19:00:22.731Z,43.77
2018-01-12T19:02:53.411Z,59.87
2018-01-12T19:05:23.836Z,49.50
2018-01-12T19:07:54.054Z,52.47
2018-01-12T19:10:24.765Z,46.70
2018-01-12T19:12:55.133Z,57.63
2018-01-12T19:15:26.748Z,54.43
2018-01-12T19:17:57.341Z,55.90
2018-01-12T19:20:28.532Z,47.60
2018-01-12T19:22:59.230Z,52.77
2018-01-12T19:25:29.731Z,53.07
2018-01-12T19:28:00.815Z,57.00
2018-01-12T19:30:31.393Z,67.50
2018-01-12T19:33:01.941Z,48.57
2018-01-12T19:35:32.159Z,57.47
2018-01-12T19:38:03.956Z,54.00
2018-01-12T19:40:35.073Z,48.30
2018-01-12T19:43:05.596Z,55.93
2018-01-12T19:45:35.864Z,55.33
2018-01-12T19:48:06.167Z,58.90
2018-01-12T19:50:36.691Z,51.73
2018-01-12T19:53:06.957Z,51.70
2018-01-12T19:55:37.920Z,49.83
2018-01-12T19:58:09.242Z,51.37
2018-01-12T20:00:40.376Z,62.37
2018-01-12T20:03:10.710Z,49.80
2018-01-12T20:05:41.274Z,51.60
2018-01-12T20:08:11.592Z,48.70
2018-01-12T20:10:42.682Z,57.37
2018-01-12T20:13:13.687Z,46.20
2018-01-12T20:15:43.920Z,42.00
2018-01-12T20:18:14.206Z,44.20
2018-01-12T20:20:45.717Z,52.00
2018-01-12T20:23:16.369Z,49.60
2018-01-12T20:25:47.425Z,46.27
2018-01-12T20:28:18.617Z,48.57
2018-01-12T20:30:49.365Z,47.37
2018-01-12T20:33:19.571Z,45.73
2018-01-12T20:35:49.704Z,36.10
2018-01-12T20:38:20.152Z,40.00
2018-01-12T20:40:50.409Z,48.23
2018-01-12T20:43:20.857Z,40.37
2018-01-12T20:45:51.404Z,52.10
2018-01-12T20:48:21.916Z,52.90
2018-01-12T20:50:52.225Z,41.93
2018-01-12T20:53:22.772Z,51.27
2018-01-12T20:55:53.065Z,50.03
2018-01-12T20:58:24.356Z,56.67
2018-01-12T21:00:54.726Z,48.40
2018-01-12T21:03:26.586Z,47.13
2018-01-12T21:05:57.729Z,52.47
2018-01-12T21:08:28.239Z,45.67
2018-01-12T21:10:58.409Z,43.20
2018-01-12T21:13:28.832Z,47.10
2018-01-12T21:15:59.278Z,47.60
2018-01-12T21:18:29.916Z,50.10
2018-01-12T21:21:01.289Z,55.33
2018-01-12T21:23:31.524Z,48.03
2018-01-12T21:26:01.741Z,45.30
2018-01-12T21:28:32.666Z,45.67
2018-01-12T21:31:02.948Z,54.87
2018-01-12T21:33:33.240Z,51.83
2018-01-12T21:36:04.904Z,45.33
2018-01-12T21:38:35.229Z,48.13
2018-01-12T21:41:05.618Z,46.63
2018-01-12T21:44:39.598Z,41.80
2018-01-12T21:47:10.287Z,41.10
2018-01-12T21:49:41.450Z,37.57
2018-01-12T21:52:12.169Z,55.93
2018-01-12T21:54:43.448Z,42.97
2018-01-12T21:57:13.900Z,39.97
2018-01-12T21:59:44.084Z,39.03
2018-01-12T22:02:14.903Z,45.13
2018-01-12T22:04:44.999Z,47.93
2018-01-12T22:07:15.707Z,49.83
2018-01-12T22:09:54.918Z,41.90
2018-01-12T22:12:26.046Z,49.17
2018-01-12T22:14:56.741Z,51.50
2018-01-12T22:17:28.085Z,44.97
2018-01-12T22:19:58.684Z,42.50
2018-01-12T22:22:28.957Z,43.07
2018-01-12T22:25:00.799Z,42.77
2018-01-12T22:27:31.460Z,42.00
2018-01-12T22:30:01.732Z,41.73
2018-01-12T22:32:32.040Z,39.30
2018-01-12T22:35:02.528Z,40.07
2018-01-12T22:37:33.589Z,38.90
2018-01-12T22:40:03.895Z,43.03
2018-01-12T22:42:34.777Z,37.10
2018-01-12T22:45:05.181Z,45.23
2018-01-12T22:47:35.698Z,39.60
2018-01-12T22:50:06.418Z,51.37
2018-01-12T22:52:36.738Z,46.60
2018-01-12T22:55:08.371Z,39.87
2018-01-12T22:57:39.963Z,49.63
2018-01-12T23:00:11.360Z,39.47
2018-01-12T23:02:41.525Z,34.50
2018-01-12T23:05:12.145Z,36.63
2018-01-12T23:07:42.305Z,44.20
2018-01-12T23:10:13.429Z,45.50
2018-01-12T23:12:44.125Z,42.57
2018-01-12T23:15:15.332Z,42.60
2018-01-12T23:17:45.977Z,41.17
2018-01-12T23:20:16.138Z,47.60
2018-01-12T23:22:46.682Z,40.80
2018-01-12T23:25:16.823Z,42.37
2018-01-12T23:27:48.349Z,45.97
2018-01-12T23:30:21.293Z,44.23
2018-01-12T23:32:52.541Z,53.37
2018-01-12T23:35:23.336Z,45.17
2018-01-12T23:37:53.719Z,47.97
2018-01-12T23:40:26.713Z,41.57
2018-01-12T23:42:57.342Z,48.83
2018-01-12T23:45:27.668Z,44.13
2018-01-12T23:47:57.952Z,42.40
2018-01-12T23:50:28.045Z,47.40
2018-01-12T23:52:59.708Z,40.07
2018-01-12T23:55:30.290Z,38.37
2018-01-12T23:58:01.167Z,37.97
